createdAt,value
2019-05-26T00:00:17.788Z,14.10
2019-05-26T00:02:50.338Z,13.73
2019-05-26T00:05:21.930Z,13.62
2019-05-26T00:07:54.736Z,13.53
2019-05-26T00:10:28.473Z,13.51
2019-05-26T00:13:00.553Z,13.49
2019-05-26T00:15:32.337Z,13.49
2019-05-26T00:18:03.998Z,13.47
2019-05-26T00:20:35.629Z,13.40
2019-05-26T00:23:07.599Z,13.54
2019-05-26T00:25:39.779Z,13.68
2019-05-26T00:28:11.665Z,13.81
2019-05-26T00:30:43.301Z,13.88
2019-05-26T00:33:15.350Z,13.92
2019-05-26T00:35:47.241Z,13.88
2019-05-26T00:38:19.319Z,13.70
2019-05-26T00:40:51.460Z,13.50
2019-05-26T00:43:23.060Z,13.38
2019-05-26T00:45:54.813Z,13.31
2019-05-26T00:48:26.565Z,13.30
2019-05-26T00:50:58.964Z,13.42
2019-05-26T00:53:31.644Z,13.54
2019-05-26T00:56:03.564Z,13.59
2019-05-26T00:58:35.191Z,13.50
2019-05-26T01:01:07.638Z,13.36
2019-05-26T01:03:43.126Z,13.27
2019-05-26T01:06:14.885Z,13.23
2019-05-26T01:08:46.914Z,13.27
2019-05-26T01:11:18.632Z,13.40
2019-05-26T01:13:50.334Z,13.52
2019-05-26T01:16:23.380Z,13.56
2019-05-26T01:18:55.762Z,13.51
2019-05-26T01:21:30.453Z,13.56
2019-05-26T01:24:03.125Z,13.82
2019-05-26T01:26:36.106Z,13.92
2019-05-26T01:29:08.858Z,13.91
2019-05-26T01:31:40.678Z,13.85
2019-05-26T01:34:12.766Z,13.80
2019-05-26T01:36:44.899Z,13.73
2019-05-26T01:39:16.783Z,13.70
2019-05-26T01:41:48.656Z,13.33
2019-05-26T01:44:20.585Z,13.23
2019-05-26T01:46:53.365Z,13.21
2019-05-26T01:49:25.272Z,13.16
2019-05-26T01:51:56.910Z,13.14
2019-05-26T01:54:28.513Z,13.39
2019-05-26T01:57:00.200Z,13.51
2019-05-26T01:59:32.014Z,13.66
2019-05-26T02:02:03.822Z,13.78
2019-05-26T02:04:35.445Z,13.81
2019-05-26T02:07:07.381Z,13.78
2019-05-26T02:09:39.997Z,13.94
2019-05-26T02:12:13.769Z,13.87
2019-05-26T02:14:45.504Z,13.90
2019-05-26T02:17:17.560Z,13.67
2019-05-26T02:19:49.427Z,13.53
2019-05-26T02:22:22.895Z,13.55
2019-05-26T02:24:54.783Z,13.57
2019-05-26T02:27:26.933Z,13.64
2019-05-26T02:29:58.761Z,13.77
2019-05-26T02:32:31.744Z,13.79
2019-05-26T02:35:03.866Z,13.72
2019-05-26T02:37:36.111Z,13.61
2019-05-26T02:40:08.852Z,13.53
2019-05-26T02:42:40.919Z,13.44
2019-05-26T02:45:15.974Z,13.48
2019-05-26T02:47:47.701Z,13.53
2019-05-26T02:50:21.856Z,13.57
2019-05-26T02:52:53.450Z,13.62
2019-05-26T02:55:27.033Z,13.53
2019-05-26T02:57:58.705Z,13.43
2019-05-26T03:00:41.368Z,13.35
2019-05-26T03:03:15.241Z,13.24
2019-05-26T03:05:47.532Z,13.12
2019-05-26T03:08:21.222Z,13.19
2019-05-26T03:10:54.677Z,13.29
2019-05-26T03:13:28.424Z,13.39
2019-05-26T03:16:02.650Z,13.57
2019-05-26T03:18:39.201Z,13.65
2019-05-26T03:21:13.093Z,13.66
2019-05-26T03:23:47.761Z,13.62
2019-05-26T03:26:21.205Z,13.58
2019-05-26T03:28:53.104Z,13.64
2019-05-26T03:31:24.862Z,13.73
2019-05-26T03:33:56.879Z,13.85
2019-05-26T03:36:28.983Z,13.86
2019-05-26T03:39:00.894Z,13.94
2019-05-26T03:41:34.771Z,14.05
2019-05-26T03:44:06.282Z,13.93
2019-05-26T03:46:38.936Z,13.85
2019-05-26T03:49:11.330Z,13.58
2019-05-26T03:51:44.013Z,13.49
2019-05-26T03:54:16.461Z,13.54
2019-05-26T03:56:48.012Z,13.58
2019-05-26T03:59:20.932Z,13.63
2019-05-26T04:01:57.664Z,13.66
2019-05-26T04:04:27.495Z,13.73
2019-05-26T04:06:59.546Z,13.82
2019-05-26T04:09:31.545Z,13.82
2019-05-26T04:12:04.474Z,13.85
2019-05-26T04:14:36.087Z,13.95
2019-05-26T04:17:08.137Z,14.03
2019-05-26T04:19:39.872Z,14.05
2019-05-26T04:22:11.597Z,14.06
2019-05-26T04:24:44.079Z,14.01
2019-05-26T04:27:15.788Z,14.12
2019-05-26T04:29:47.467Z,14.18
2019-05-26T04:32:19.332Z,14.21
2019-05-26T04:34:52.119Z,14.27
2019-05-26T04:37:24.389Z,14.23
2019-05-26T04:39:56.126Z,14.28
2019-05-26T04:42:27.779Z,14.29
2019-05-26T04:44:59.609Z,14.11
2019-05-26T04:47:31.670Z,14.05
2019-05-26T04:50:03.766Z,14.14
2019-05-26T04:52:37.386Z,14.08
2019-05-26T04:55:09.192Z,14.15
2019-05-26T04:57:42.682Z,14.01
2019-05-26T05:00:15.213Z,14.01
2019-05-26T05:02:46.888Z,14.01
2019-05-26T05:05:20.015Z,13.98
2019-05-26T05:07:53.362Z,14.00
2019-05-26T05:10:41.374Z,14.05
2019-05-26T05:13:00.792Z,13.93
2019-05-26T05:15:32.443Z,13.86
2019-05-26T05:18:04.248Z,13.79
2019-05-26T05:20:35.795Z,13.84
2019-05-26T05:23:09.029Z,13.78
2019-05-26T05:25:40.802Z,13.89
2019-05-26T05:28:13.682Z,13.74
2019-05-26T05:30:46.767Z,13.74
2019-05-26T05:33:18.437Z,13.78
2019-05-26T05:35:50.593Z,13.86
2019-05-26T05:38:23.185Z,13.91
2019-05-26T05:40:59.955Z,13.85
2019-05-26T05:43:30.549Z,14.00
2019-05-26T05:46:03.553Z,14.03
2019-05-26T05:48:35.118Z,14.10
2019-05-26T05:51:07.112Z,14.37
2019-05-26T05:53:38.974Z,14.30
2019-05-26T05:56:11.990Z,14.44
2019-05-26T05:58:44.721Z,14.57
2019-05-26T06:01:16.738Z,14.83
2019-05-26T06:03:49.417Z,14.81
2019-05-26T06:06:22.969Z,14.82
2019-05-26T06:08:55.663Z,14.87
2019-05-26T06:11:28.714Z,14.83
2019-05-26T06:14:01.442Z,15.05
2019-05-26T06:16:33.584Z,15.15
2019-05-26T06:19:06.079Z,15.30
2019-05-26T06:21:37.893Z,15.41
2019-05-26T06:24:09.451Z,15.53
2019-05-26T06:26:41.181Z,15.55
2019-05-26T06:29:12.881Z,15.53
2019-05-26T06:31:45.832Z,15.62
2019-05-26T06:34:18.047Z,15.87
2019-05-26T06:36:49.710Z,15.76
2019-05-26T06:39:21.555Z,15.87
2019-05-26T06:41:53.325Z,16.13
2019-05-26T06:44:24.986Z,16.19
2019-05-26T06:46:57.566Z,16.32
2019-05-26T06:49:29.517Z,16.19
2019-05-26T06:52:02.032Z,16.38
2019-05-26T06:54:33.822Z,16.66
2019-05-26T06:57:07.766Z,16.57
2019-05-26T06:59:40.064Z,16.71
2019-05-26T07:02:14.603Z,16.70
2019-05-26T07:04:46.585Z,16.70
2019-05-26T07:07:18.397Z,17.00
2019-05-26T07:09:51.533Z,17.09
2019-05-26T07:12:23.344Z,17.33
2019-05-26T07:14:56.911Z,17.35
2019-05-26T07:17:28.672Z,17.47
2019-05-26T07:20:00.891Z,17.54
2019-05-26T07:22:32.769Z,17.56
2019-05-26T07:25:04.879Z,17.56
2019-05-26T07:27:37.159Z,17.85
2019-05-26T07:30:09.374Z,17.77
2019-05-26T07:32:41.745Z,17.62
2019-05-26T07:35:13.713Z,18.01
2019-05-26T07:37:45.403Z,18.10
2019-05-26T07:40:19.573Z,18.10
2019-05-26T07:42:51.377Z,18.12
2019-05-26T07:45:23.175Z,18.18
2019-05-26T07:47:55.812Z,18.21
2019-05-26T07:50:28.088Z,18.48
2019-05-26T07:53:02.141Z,18.52
2019-05-26T07:55:34.298Z,18.68
2019-05-26T07:58:07.226Z,18.66
2019-05-26T08:00:39.715Z,18.38
2019-05-26T08:03:12.438Z,18.52
2019-05-26T08:05:45.686Z,18.40
2019-05-26T08:08:18.894Z,18.84
2019-05-26T08:10:50.716Z,19.06
2019-05-26T08:13:22.449Z,19.03
2019-05-26T08:15:55.008Z,18.90
2019-05-26T08:18:26.689Z,19.08
2019-05-26T08:20:58.522Z,19.01
2019-05-26T08:23:30.177Z,18.83
2019-05-26T08:26:02.569Z,19.00
2019-05-26T08:28:34.076Z,18.98
2019-05-26T08:31:05.899Z,19.12
2019-05-26T08:33:37.568Z,19.34
2019-05-26T08:36:09.382Z,19.38
2019-05-26T08:38:42.240Z,19.34
2019-05-26T08:41:15.973Z,19.78
2019-05-26T08:43:47.760Z,19.99
2019-05-26T08:46:20.342Z,20.31
2019-05-26T08:48:53.507Z,20.60
2019-05-26T08:51:26.690Z,20.78
2019-05-26T08:54:01.614Z,20.71
2019-05-26T08:56:34.157Z,20.56
2019-05-26T08:59:07.531Z,20.42
2019-05-26T09:01:41.065Z,20.36
2019-05-26T09:04:14.735Z,20.52
2019-05-26T09:06:46.465Z,20.26
2019-05-26T09:09:18.498Z,20.01
2019-05-26T09:11:50.285Z,20.18
2019-05-26T09:14:25.403Z,20.36
2019-05-26T09:16:55.521Z,20.45
2019-05-26T09:19:27.177Z,20.21
2019-05-26T09:21:59.893Z,20.11
2019-05-26T09:24:31.678Z,20.31
2019-05-26T09:27:03.519Z,20.60
2019-05-26T09:29:35.105Z,20.66
2019-05-26T09:32:06.770Z,20.76
2019-05-26T09:34:38.374Z,20.70
2019-05-26T09:37:11.964Z,20.78
2019-05-26T09:39:45.760Z,20.87
2019-05-26T09:42:22.323Z,20.80
2019-05-26T09:44:54.513Z,20.93
2019-05-26T09:47:28.571Z,20.70
2019-05-26T09:50:02.611Z,20.85
2019-05-26T09:52:35.312Z,20.75
2019-05-26T09:55:07.832Z,20.85
2019-05-26T09:57:39.618Z,21.14
2019-05-26T10:00:16.023Z,21.12
2019-05-26T10:02:46.680Z,20.98
2019-05-26T10:05:18.438Z,20.90
2019-05-26T10:07:51.800Z,21.01
2019-05-26T10:10:23.779Z,21.34
2019-05-26T10:12:55.746Z,21.07
2019-05-26T10:15:27.759Z,21.24
2019-05-26T10:18:00.304Z,21.26
2019-05-26T10:20:32.086Z,21.19
2019-05-26T10:23:03.965Z,21.69
2019-05-26T10:25:35.684Z,21.78
2019-05-26T10:28:07.809Z,21.36
2019-05-26T10:30:39.598Z,21.00
2019-05-26T10:33:11.316Z,21.17
2019-05-26T10:35:42.930Z,21.36
2019-05-26T10:38:15.395Z,21.18
2019-05-26T10:40:47.984Z,21.47
2019-05-26T10:43:22.041Z,21.71
2019-05-26T10:45:54.727Z,21.52
2019-05-26T10:48:28.524Z,21.95
2019-05-26T10:51:00.140Z,21.80
2019-05-26T10:53:32.972Z,22.03
2019-05-26T10:56:04.830Z,22.24
2019-05-26T10:58:36.358Z,21.97
2019-05-26T11:01:10.205Z,22.00
2019-05-26T11:03:42.189Z,21.78
2019-05-26T11:06:13.939Z,21.94
2019-05-26T11:08:45.694Z,21.39
2019-05-26T11:11:17.937Z,21.65
2019-05-26T11:14:01.795Z,21.42
2019-05-26T11:16:25.027Z,21.76
2019-05-26T11:18:58.333Z,21.42
2019-05-26T11:21:30.103Z,21.30
2019-05-26T11:24:03.029Z,21.82
2019-05-26T11:26:34.628Z,21.69
2019-05-26T11:29:06.705Z,21.69
2019-05-26T11:31:38.345Z,21.80
2019-05-26T11:34:10.115Z,21.87
2019-05-26T11:36:42.466Z,22.25
2019-05-26T11:39:15.242Z,22.18
2019-05-26T11:41:54.636Z,22.32
2019-05-26T11:44:22.231Z,22.50
2019-05-26T11:46:54.849Z,22.01
2019-05-26T11:49:27.498Z,22.42
2019-05-26T11:51:59.448Z,22.73
2019-05-26T11:54:34.363Z,22.68
2019-05-26T11:57:04.686Z,22.55
2019-05-26T11:59:36.426Z,22.84
2019-05-26T12:02:08.297Z,23.27
2019-05-26T12:04:39.993Z,23.73
2019-05-26T12:07:12.139Z,23.70
2019-05-26T12:09:43.940Z,24.23
2019-05-26T12:12:15.819Z,24.44
2019-05-26T12:14:47.529Z,24.29
2019-05-26T12:17:19.404Z,23.94
2019-05-26T12:19:51.125Z,24.56
2019-05-26T12:22:23.007Z,23.56
2019-05-26T12:24:54.748Z,23.48
2019-05-26T12:27:26.923Z,23.52
2019-05-26T12:29:59.815Z,24.34
2019-05-26T12:32:33.536Z,24.58
2019-05-26T12:35:07.314Z,25.16
2019-05-26T12:37:38.991Z,25.84
2019-05-26T12:40:13.505Z,25.98
2019-05-26T12:42:45.255Z,25.98
2019-05-26T12:45:21.839Z,25.41
2019-05-26T12:47:54.242Z,24.54
2019-05-26T12:50:26.136Z,24.57
2019-05-26T12:52:57.714Z,23.99
2019-05-26T12:55:32.598Z,24.18
2019-05-26T12:58:04.743Z,24.15
2019-05-26T13:00:48.100Z,24.51
2019-05-26T13:03:09.979Z,24.54
2019-05-26T13:05:43.420Z,24.55
2019-05-26T13:08:15.181Z,24.71
2019-05-26T13:10:46.804Z,24.88
2019-05-26T13:13:18.818Z,24.36
2019-05-26T13:15:50.487Z,24.80
2019-05-26T13:18:22.609Z,25.54
2019-05-26T13:20:54.641Z,24.78
2019-05-26T13:23:26.410Z,24.61
2019-05-26T13:25:59.043Z,25.41
2019-05-26T13:28:33.249Z,25.33
2019-05-26T13:31:06.883Z,25.56
2019-05-26T13:33:38.808Z,25.80
2019-05-26T13:36:10.434Z,25.80
2019-05-26T13:38:42.600Z,26.79
2019-05-26T13:41:14.287Z,27.18
2019-05-26T13:43:45.972Z,27.25
2019-05-26T13:46:19.293Z,26.58
2019-05-26T13:48:51.526Z,27.24
2019-05-26T13:51:23.421Z,27.31
2019-05-26T13:53:55.188Z,26.48
2019-05-26T13:56:26.722Z,26.21
2019-05-26T13:59:00.314Z,26.04
2019-05-26T14:01:32.051Z,26.07
2019-05-26T14:04:03.912Z,26.50
2019-05-26T14:06:35.534Z,27.10
2019-05-26T14:09:10.220Z,26.55
2019-05-26T14:11:41.930Z,26.53
2019-05-26T14:14:13.787Z,26.58
2019-05-26T14:16:46.995Z,26.48
2019-05-26T14:19:21.276Z,27.13
2019-05-26T14:21:52.961Z,26.55
2019-05-26T14:24:25.554Z,27.12
2019-05-26T14:26:58.526Z,27.69
2019-05-26T14:29:31.038Z,27.97
2019-05-26T14:32:02.763Z,27.74
2019-05-26T14:34:36.072Z,27.97
2019-05-26T14:37:07.848Z,28.05
2019-05-26T14:39:39.413Z,26.13
2019-05-26T14:42:12.351Z,26.60
2019-05-26T18:41:43.509Z,22.19
2019-05-26T18:44:15.723Z,22.08
2019-05-26T18:46:47.732Z,22.00
2019-05-26T18:49:19.525Z,21.88
2019-05-26T18:51:51.198Z,21.80
2019-05-26T18:54:23.079Z,21.79
2019-05-26T18:56:54.622Z,21.72
2019-05-26T18:59:26.758Z,21.63
2019-05-26T19:01:58.519Z,21.61
2019-05-26T19:04:30.333Z,21.58
2019-05-26T19:07:02.331Z,21.53
2019-05-26T19:11:18.180Z,21.49
2019-05-26T19:13:50.012Z,21.44
2019-05-26T19:16:22.607Z,21.40
2019-05-26T19:18:56.224Z,21.38
2019-05-26T19:21:28.146Z,21.27
2019-05-26T19:24:00.292Z,21.21
2019-05-26T19:26:32.104Z,21.13
2019-05-26T19:29:06.089Z,21.01
2019-05-26T19:31:38.526Z,21.02
2019-05-26T19:34:11.580Z,21.00
2019-05-26T19:36:44.278Z,20.97
2019-05-26T19:39:16.256Z,20.96
2019-05-26T19:41:48.257Z,20.95
2019-05-26T19:44:20.229Z,20.87
2019-05-26T19:46:52.941Z,20.86
2019-05-26T19:49:25.471Z,20.81
2019-05-26T19:51:57.483Z,20.75
2019-05-26T19:54:29.203Z,20.68
2019-05-26T19:57:02.049Z,20.54
2019-05-26T19:59:34.293Z,20.50
2019-05-26T20:02:17.861Z,20.41
2019-05-26T20:04:40.254Z,20.34
2019-05-26T20:07:12.200Z,20.23
2019-05-26T20:09:44.140Z,20.25
2019-05-26T20:12:16.454Z,20.26
2019-05-26T20:14:49.585Z,20.15
2019-05-26T20:17:21.938Z,20.11
2019-05-26T20:19:54.183Z,20.12
2019-05-26T20:22:28.848Z,20.10
2019-05-26T20:25:02.281Z,20.11
2019-05-26T20:27:35.858Z,20.11
2019-05-26T20:30:09.291Z,20.08
2019-05-26T20:32:41.611Z,20.09
2019-05-26T20:35:14.203Z,20.08
2019-05-26T20:37:49.197Z,20.07
2019-05-26T20:40:21.614Z,20.04
2019-05-26T20:42:53.358Z,20.01
2019-05-26T20:45:25.363Z,19.97
2019-05-26T20:47:56.983Z,19.92
2019-05-26T20:50:30.246Z,19.90
2019-05-26T20:53:03.044Z,19.89
2019-05-26T20:55:34.961Z,19.88
2019-05-26T20:58:06.793Z,19.78
2019-05-26T21:00:38.817Z,19.77
2019-05-26T21:03:10.622Z,19.69
2019-05-26T21:05:42.747Z,19.58
2019-05-26T21:08:15.269Z,19.58
2019-05-26T21:10:47.674Z,19.54
2019-05-26T21:13:20.888Z,19.51
2019-05-26T21:15:53.973Z,19.44
2019-05-26T21:18:26.641Z,19.37
2019-05-26T21:20:59.033Z,19.25
2019-05-26T21:23:32.001Z,19.23
2019-05-26T21:26:04.956Z,19.17
2019-05-26T21:28:36.659Z,19.16
2019-05-26T21:31:10.959Z,19.13
2019-05-26T21:33:43.449Z,19.11
2019-05-26T21:36:15.303Z,19.06
2019-05-26T21:38:47.129Z,19.01
2019-05-26T21:41:19.245Z,18.95
2019-05-26T21:43:51.113Z,18.77
2019-05-26T21:46:22.824Z,18.56
2019-05-26T21:48:54.345Z,18.42
2019-05-26T21:51:25.916Z,18.42
2019-05-26T21:53:57.595Z,18.35
2019-05-26T21:56:29.252Z,18.37
2019-05-26T21:59:02.219Z,18.36
2019-05-26T22:01:33.890Z,18.33
2019-05-26T22:04:06.830Z,18.29
2019-05-26T22:06:39.228Z,18.30
2019-05-26T22:09:11.086Z,18.31
2019-05-26T22:11:44.082Z,18.34
2019-05-26T22:14:19.474Z,18.37
2019-05-26T22:16:52.137Z,18.31
2019-05-26T22:19:24.379Z,18.29
2019-05-26T22:21:56.778Z,18.30
2019-05-26T22:24:30.730Z,18.28
2019-05-26T22:27:03.510Z,18.25
2019-05-26T22:29:35.210Z,18.23
2019-05-26T22:32:06.792Z,18.20
2019-05-26T22:34:38.610Z,18.20
2019-05-26T22:37:10.191Z,18.22
2019-05-26T22:39:42.994Z,18.16
2019-05-26T22:42:14.812Z,18.12
2019-05-26T22:44:46.822Z,18.10
2019-05-26T22:47:18.615Z,18.09
2019-05-26T22:49:50.239Z,18.09
2019-05-26T22:52:22.049Z,18.06
2019-05-26T22:54:53.755Z,18.03
2019-05-26T22:57:25.981Z,17.94
2019-05-26T22:59:58.182Z,17.86
2019-05-26T23:02:30.756Z,17.72
2019-05-26T23:05:02.517Z,17.65
2019-05-26T23:07:35.278Z,17.57
2019-05-26T23:10:10.622Z,17.58
2019-05-26T23:12:42.205Z,17.61
2019-05-26T23:15:14.703Z,17.65
2019-05-26T23:17:46.292Z,17.70
2019-05-26T23:20:19.439Z,17.73
2019-05-26T23:22:53.166Z,17.74
2019-05-26T23:25:25.596Z,17.73
2019-05-26T23:27:58.687Z,17.68
2019-05-26T23:30:30.479Z,17.54
2019-05-26T23:33:02.299Z,17.54
2019-05-26T23:35:34.154Z,17.62
2019-05-26T23:38:06.259Z,17.66
2019-05-26T23:40:38.004Z,17.70
2019-05-26T23:43:09.809Z,17.70
2019-05-26T23:45:41.499Z,17.72
2019-05-26T23:48:13.280Z,17.68
2019-05-26T23:50:45.860Z,17.62
2019-05-26T23:53:17.555Z,17.61
2019-05-26T23:55:50.501Z,17.54
2019-05-26T23:58:22.316Z,17.49
